createdAt,value
2022-08-26T00:00:16.695Z,21.83
2022-08-26T00:01:18.805Z,21.84
2022-08-26T00:02:30.513Z,21.81
2022-08-26T00:03:32.036Z,21.83
2022-08-26T00:04:33.607Z,21.94
2022-08-26T00:05:35.160Z,21.95
2022-08-26T00:06:37.162Z,21.89
2022-08-26T00:07:38.694Z,21.84
2022-08-26T00:08:40.917Z,21.85
2022-08-26T00:09:43.055Z,21.84
2022-08-26T00:10:49.706Z,21.81
2022-08-26T00:11:51.360Z,21.81
2022-08-26T00:12:52.868Z,21.78
2022-08-26T00:13:55.701Z,21.77
2022-08-26T00:14:58.032Z,21.75
2022-08-26T00:15:59.916Z,21.74
2022-08-26T00:17:01.456Z,21.67
2022-08-26T00:18:03.504Z,21.69
2022-08-26T00:19:20.366Z,21.68
2022-08-26T00:20:25.805Z,21.69
2022-08-26T00:21:28.344Z,21.71
2022-08-26T00:22:30.588Z,21.69
2022-08-26T00:23:32.069Z,21.65
2022-08-26T00:24:33.570Z,21.61
2022-08-26T00:25:35.656Z,21.58
2022-08-26T00:26:43.994Z,21.63
2022-08-26T00:27:46.143Z,21.65
2022-08-26T00:28:48.621Z,21.60
2022-08-26T00:29:51.358Z,21.59
2022-08-26T00:30:53.142Z,21.56
2022-08-26T00:31:54.673Z,21.58
2022-08-26T00:32:57.069Z,21.59
2022-08-26T00:33:59.181Z,21.57
2022-08-26T00:35:01.222Z,21.56
2022-08-26T00:36:03.806Z,21.55
2022-08-26T00:37:09.824Z,21.54
2022-08-26T00:38:14.832Z,21.54
2022-08-26T00:39:16.398Z,21.53
2022-08-26T00:40:26.075Z,21.58
2022-08-26T00:41:27.676Z,21.62
2022-08-26T00:42:29.121Z,21.63
2022-08-26T00:43:47.287Z,21.62
2022-08-26T00:44:49.675Z,21.65
2022-08-26T00:46:21.224Z,21.71
2022-08-26T00:47:31.226Z,21.71
2022-08-26T00:48:35.534Z,21.73
2022-08-26T00:49:41.923Z,21.72
2022-08-26T00:50:52.689Z,21.64
2022-08-26T00:51:56.587Z,21.61
2022-08-26T00:53:00.570Z,21.62
2022-08-26T00:54:05.725Z,21.57
2022-08-26T00:55:20.136Z,21.56
2022-08-26T00:56:29.129Z,21.55
2022-08-26T00:57:31.780Z,21.53
2022-08-26T00:58:36.777Z,21.57
2022-08-26T00:59:38.924Z,21.60
2022-08-26T01:00:40.592Z,21.63
2022-08-26T01:01:43.412Z,21.66
2022-08-26T01:02:48.748Z,21.65
2022-08-26T01:03:50.935Z,21.64
2022-08-26T01:04:57.337Z,21.66
2022-08-26T01:05:59.866Z,21.68
2022-08-26T01:07:02.171Z,21.66
2022-08-26T01:08:04.071Z,21.66
2022-08-26T01:09:05.821Z,21.67
2022-08-26T01:10:11.781Z,21.66
2022-08-26T01:11:13.757Z,21.62
2022-08-26T01:12:15.265Z,21.57
2022-08-26T01:13:23.931Z,21.56
2022-08-26T01:14:29.606Z,21.54
2022-08-26T01:15:35.448Z,21.51
2022-08-26T01:16:37.082Z,21.52
2022-08-26T01:17:39.219Z,21.47
2022-08-26T01:18:42.252Z,21.46
2022-08-26T01:19:51.876Z,21.47
2022-08-26T01:21:19.729Z,21.47
2022-08-26T01:22:44.316Z,21.42
2022-08-26T01:23:49.946Z,21.40
2022-08-26T01:24:51.452Z,21.39
2022-08-26T01:25:59.281Z,21.29
2022-08-26T01:27:05.121Z,21.30
2022-08-26T01:28:19.730Z,21.30
2022-08-26T01:29:21.271Z,21.30
2022-08-26T01:30:23.192Z,21.29
2022-08-26T01:31:31.037Z,21.29
2022-08-26T01:32:34.472Z,21.30
2022-08-26T01:33:43.693Z,21.22
2022-08-26T01:34:47.188Z,21.16
2022-08-26T01:35:49.221Z,21.09
2022-08-26T01:36:54.518Z,21.03
2022-08-26T01:37:56.697Z,21.02
2022-08-26T01:38:58.278Z,21.03
2022-08-26T01:40:00.415Z,21.02
2022-08-26T01:41:03.020Z,21.00
2022-08-26T01:42:20.965Z,20.85
2022-08-26T01:43:27.333Z,20.75
2022-08-26T01:44:32.714Z,20.71
2022-08-26T01:45:36.683Z,20.71
2022-08-26T01:46:38.274Z,20.70
2022-08-26T01:47:41.965Z,20.66
2022-08-26T01:48:45.710Z,20.64
2022-08-26T01:49:54.187Z,20.70
2022-08-26T01:50:56.303Z,20.73
2022-08-26T01:51:58.939Z,20.73
2022-08-26T01:53:04.243Z,20.74
2022-08-26T01:54:08.430Z,20.74
2022-08-26T01:55:15.074Z,20.68
2022-08-26T01:56:36.653Z,20.69
2022-08-26T01:57:38.377Z,20.70
2022-08-26T01:58:48.283Z,20.68
2022-08-26T01:59:52.104Z,20.69
2022-08-26T02:00:53.855Z,20.71
2022-08-26T02:01:56.082Z,20.74
2022-08-26T02:02:58.581Z,20.77
2022-08-26T02:04:22.128Z,20.73
2022-08-26T02:05:23.669Z,20.71
2022-08-26T02:06:25.295Z,20.73
2022-08-26T02:07:27.998Z,20.82
2022-08-26T02:08:40.827Z,20.81
2022-08-26T02:09:42.894Z,20.79
2022-08-26T02:10:44.409Z,20.78
2022-08-26T02:11:46.487Z,20.78
2022-08-26T02:12:50.196Z,20.78
2022-08-26T02:13:56.609Z,20.77
2022-08-26T02:15:02.793Z,20.77
2022-08-26T02:16:08.706Z,20.80
2022-08-26T02:17:10.778Z,20.79
2022-08-26T02:18:14.032Z,20.77
2022-08-26T02:19:20.103Z,20.77
2022-08-26T02:20:22.732Z,20.77
2022-08-26T02:21:25.160Z,20.68
2022-08-26T02:22:28.343Z,20.65
2022-08-26T02:23:29.858Z,20.67
2022-08-26T02:24:45.541Z,20.58
2022-08-26T02:25:54.108Z,20.63
2022-08-26T02:26:57.705Z,20.64
2022-08-26T02:27:59.973Z,20.68
2022-08-26T02:29:09.251Z,20.74
2022-08-26T02:30:14.737Z,20.71
2022-08-26T02:31:18.861Z,20.74
2022-08-26T02:32:21.332Z,20.71
2022-08-26T02:33:24.772Z,20.73
2022-08-26T02:34:31.081Z,20.70
2022-08-26T02:35:35.394Z,20.66
2022-08-26T02:36:37.117Z,20.66
2022-08-26T02:37:39.154Z,20.67
2022-08-26T02:38:43.438Z,20.66
2022-08-26T02:39:48.057Z,20.68
2022-08-26T02:40:49.711Z,20.71
2022-08-26T02:41:52.938Z,20.73
2022-08-26T02:42:56.039Z,20.73
2022-08-26T02:43:58.986Z,20.64
2022-08-26T02:45:00.901Z,20.49
2022-08-26T02:46:02.648Z,20.32
2022-08-26T02:47:04.412Z,20.33
2022-08-26T02:48:19.374Z,20.32
2022-08-26T02:49:22.372Z,20.38
2022-08-26T02:50:25.158Z,20.40
2022-08-26T02:51:27.143Z,20.41
2022-08-26T02:52:28.610Z,20.36
2022-08-26T02:53:31.818Z,20.37
2022-08-26T02:54:33.674Z,20.36
2022-08-26T02:55:35.358Z,20.35
2022-08-26T02:56:36.869Z,20.35
2022-08-26T02:57:38.312Z,20.31
2022-08-26T02:58:39.797Z,20.35
2022-08-26T02:59:42.842Z,20.35
2022-08-26T03:00:53.345Z,20.44
2022-08-26T03:01:56.269Z,20.26
2022-08-26T03:02:58.959Z,20.08
2022-08-26T03:04:02.689Z,20.05
2022-08-26T03:05:04.577Z,20.00
2022-08-26T03:06:06.244Z,19.90
2022-08-26T03:07:07.740Z,19.86
2022-08-26T03:08:10.060Z,19.67
2022-08-26T03:09:18.487Z,19.51
2022-08-26T03:10:20.778Z,19.41
2022-08-26T03:11:23.104Z,19.36
2022-08-26T03:12:25.738Z,19.35
2022-08-26T03:13:27.343Z,19.34
2022-08-26T03:14:29.190Z,19.29
2022-08-26T03:15:31.171Z,19.41
2022-08-26T03:16:36.145Z,19.46
2022-08-26T03:17:38.676Z,19.58
2022-08-26T03:18:41.969Z,19.72
2022-08-26T03:19:43.496Z,19.85
2022-08-26T03:20:45.704Z,19.90
2022-08-26T03:21:47.571Z,19.90
2022-08-26T03:22:49.079Z,19.85
2022-08-26T03:23:50.554Z,19.92
2022-08-26T03:24:52.536Z,19.92
2022-08-26T03:25:54.531Z,19.96
2022-08-26T03:26:57.610Z,20.05
2022-08-26T03:27:59.517Z,20.10
2022-08-26T03:29:01.119Z,20.13
2022-08-26T03:30:04.683Z,20.09
2022-08-26T03:31:06.195Z,20.09
2022-08-26T03:32:08.927Z,20.12
2022-08-26T03:33:11.634Z,20.14
2022-08-26T03:34:13.144Z,20.17
2022-08-26T03:35:15.177Z,20.24
2022-08-26T03:36:16.731Z,20.24
2022-08-26T03:37:19.036Z,20.24
2022-08-26T03:38:22.756Z,20.25
2022-08-26T03:39:24.335Z,20.22
2022-08-26T03:40:26.081Z,20.19
2022-08-26T03:41:30.685Z,20.17
2022-08-26T03:42:32.133Z,20.18
2022-08-26T03:43:33.607Z,20.19
2022-08-26T03:44:36.933Z,20.18
2022-08-26T03:45:44.148Z,20.17
2022-08-26T03:46:47.593Z,20.05
2022-08-26T03:47:49.857Z,20.07
2022-08-26T03:48:51.357Z,20.02
2022-08-26T03:49:52.869Z,20.00
2022-08-26T03:50:54.983Z,19.99
2022-08-26T03:51:57.044Z,19.97
2022-08-26T03:52:58.855Z,19.94
2022-08-26T03:54:01.500Z,19.94
2022-08-26T03:55:07.291Z,19.94
2022-08-26T03:56:09.152Z,19.97
2022-08-26T03:57:11.900Z,19.96
2022-08-26T03:58:13.361Z,19.96
2022-08-26T03:59:14.857Z,19.90
2022-08-26T04:00:18.525Z,19.83
2022-08-26T04:01:20.675Z,19.82
2022-08-26T04:02:22.737Z,19.80
2022-08-26T04:03:26.100Z,19.80
2022-08-26T04:04:27.736Z,19.84
2022-08-26T04:05:29.217Z,19.87
2022-08-26T04:06:40.053Z,19.87
2022-08-26T04:07:42.113Z,19.86
2022-08-26T04:08:43.699Z,19.84
2022-08-26T04:09:45.213Z,19.77
2022-08-26T04:10:46.680Z,19.75
2022-08-26T04:11:50.558Z,19.78
2022-08-26T04:12:52.415Z,19.76
2022-08-26T04:13:54.272Z,19.76
2022-08-26T04:14:57.160Z,19.72
2022-08-26T04:15:59.262Z,19.74
2022-08-26T04:17:01.156Z,19.75
2022-08-26T04:18:02.651Z,19.76
2022-08-26T04:19:04.352Z,19.74
2022-08-26T04:20:06.984Z,19.74
2022-08-26T04:21:09.122Z,19.74
2022-08-26T04:22:12.564Z,19.74
2022-08-26T04:23:14.228Z,19.76
2022-08-26T04:24:21.666Z,19.78
2022-08-26T04:25:24.291Z,19.83
2022-08-26T04:26:26.092Z,19.84
2022-08-26T04:27:27.769Z,19.85
2022-08-26T04:28:29.529Z,19.79
2022-08-26T04:29:31.495Z,19.78
2022-08-26T04:30:37.491Z,19.79
2022-08-26T04:31:39.182Z,19.77
2022-08-26T04:32:40.760Z,19.85
2022-08-26T04:33:47.490Z,19.91
2022-08-26T04:34:51.146Z,19.93
2022-08-26T04:36:00.786Z,19.93
2022-08-26T04:37:03.580Z,20.01
2022-08-26T04:38:07.263Z,20.08
2022-08-26T04:39:10.033Z,20.15
2022-08-26T04:40:12.051Z,20.17
2022-08-26T04:41:15.325Z,20.19
2022-08-26T04:42:23.307Z,20.24
2022-08-26T04:43:27.721Z,20.28
2022-08-26T04:44:30.209Z,20.29
2022-08-26T04:45:31.692Z,20.31
2022-08-26T04:46:33.723Z,20.35
2022-08-26T04:47:35.163Z,20.42
2022-08-26T04:48:36.942Z,20.43
2022-08-26T04:49:38.424Z,20.48
2022-08-26T04:50:39.916Z,20.52
2022-08-26T04:51:44.499Z,20.56
2022-08-26T04:52:46.107Z,20.54
2022-08-26T04:53:47.552Z,20.56
2022-08-26T04:54:49.309Z,20.60
2022-08-26T04:55:52.451Z,20.62
2022-08-26T04:56:56.786Z,20.67
2022-08-26T04:57:59.503Z,20.72
2022-08-26T04:59:02.397Z,20.74
2022-08-26T05:00:06.165Z,20.75
2022-08-26T05:01:07.880Z,20.82
2022-08-26T05:02:09.399Z,20.78
2022-08-26T05:03:10.947Z,20.84
2022-08-26T05:04:12.506Z,20.84
2022-08-26T05:05:18.106Z,20.89
2022-08-26T05:06:19.606Z,20.94
2022-08-26T05:07:21.047Z,20.97
2022-08-26T05:08:23.481Z,21.01
2022-08-26T05:09:25.183Z,21.07
2022-08-26T05:10:26.695Z,21.11
2022-08-26T05:11:28.173Z,21.18
2022-08-26T05:12:30.983Z,21.24
2022-08-26T05:13:33.493Z,21.28
2022-08-26T05:14:35.920Z,21.33
2022-08-26T05:15:37.413Z,21.43
2022-08-26T05:16:40.445Z,21.48
2022-08-26T05:17:42.061Z,21.58
2022-08-26T05:18:44.286Z,21.66
2022-08-26T05:19:46.378Z,21.77
2022-08-26T05:20:50.999Z,21.92
2022-08-26T05:21:55.276Z,22.02
2022-08-26T05:22:56.762Z,22.14
2022-08-26T05:23:58.553Z,22.25
2022-08-26T05:25:00.154Z,22.37
2022-08-26T05:26:02.092Z,22.51
2022-08-26T05:27:07.484Z,22.63
2022-08-26T05:28:15.793Z,22.74
2022-08-26T05:29:17.267Z,22.70
2022-08-26T05:30:19.772Z,22.67
2022-08-26T05:31:27.902Z,22.64
2022-08-26T05:32:29.823Z,22.72
2022-08-26T05:33:31.325Z,22.85
2022-08-26T05:34:32.809Z,22.98
2022-08-26T05:35:35.542Z,23.09
2022-08-26T05:36:37.170Z,23.20
2022-08-26T05:37:39.534Z,23.38
2022-08-26T05:38:41.959Z,23.55
2022-08-26T05:39:50.980Z,23.65
2022-08-26T05:40:53.215Z,23.87
2022-08-26T05:41:54.775Z,24.04
2022-08-26T05:42:56.256Z,24.21
2022-08-26T05:43:59.897Z,24.34
2022-08-26T05:45:01.365Z,24.47
2022-08-26T05:46:07.126Z,24.62
2022-08-26T05:47:08.613Z,24.76
2022-08-26T05:48:10.317Z,24.89
2022-08-26T05:49:13.752Z,25.06
2022-08-26T05:50:15.258Z,25.17
2022-08-26T05:51:16.726Z,25.26
2022-08-26T05:52:19.080Z,25.43
2022-08-26T05:53:21.852Z,25.58
2022-08-26T05:54:23.299Z,25.65
2022-08-26T05:55:25.398Z,25.74
2022-08-26T05:56:26.877Z,25.82
2022-08-26T05:57:29.438Z,25.90
2022-08-26T05:58:31.220Z,26.04
2022-08-26T05:59:32.710Z,26.10
2022-08-26T06:00:34.177Z,26.19
2022-08-26T06:01:36.049Z,26.38
2022-08-26T06:02:37.673Z,26.45
2022-08-26T06:03:41.118Z,26.47
2022-08-26T06:04:43.292Z,26.55
2022-08-26T06:05:44.904Z,26.61
2022-08-26T06:06:46.388Z,26.73
2022-08-26T06:07:47.951Z,26.83
2022-08-26T06:08:50.239Z,26.87
2022-08-26T06:09:51.721Z,26.85
2022-08-26T06:11:00.870Z,26.91
2022-08-26T06:12:03.639Z,26.97
2022-08-26T06:13:11.479Z,27.06
2022-08-26T06:14:13.678Z,27.02
2022-08-26T06:15:15.254Z,27.02
2022-08-26T06:16:19.420Z,27.04
2022-08-26T06:17:20.917Z,27.08
2022-08-26T06:18:28.000Z,27.11
2022-08-26T06:19:32.958Z,27.06
2022-08-26T06:20:35.996Z,27.02
2022-08-26T06:21:40.869Z,26.99
2022-08-26T06:22:42.397Z,26.96
2022-08-26T06:23:45.310Z,26.98
2022-08-26T06:24:46.772Z,27.00
2022-08-26T06:25:49.177Z,26.89
2022-08-26T06:26:55.047Z,26.90
2022-08-26T06:27:56.524Z,26.90
2022-08-26T06:28:58.182Z,26.85
2022-08-26T06:29:59.653Z,26.88
2022-08-26T06:31:02.949Z,26.83
2022-08-26T06:32:05.034Z,26.80
2022-08-26T06:33:07.752Z,26.78
2022-08-26T06:34:10.855Z,26.72
2022-08-26T06:35:12.566Z,26.73
2022-08-26T06:36:21.487Z,26.60
2022-08-26T06:37:22.950Z,26.53
2022-08-26T06:38:25.320Z,26.48
2022-08-26T06:39:26.791Z,26.46
2022-08-26T06:40:32.646Z,26.48
2022-08-26T06:41:34.568Z,26.45
2022-08-26T06:42:36.076Z,26.43
2022-08-26T06:43:38.744Z,26.40
2022-08-26T06:44:41.035Z,26.41
2022-08-26T06:45:43.178Z,26.42
2022-08-26T06:46:44.753Z,26.41
2022-08-26T06:47:46.274Z,26.34
2022-08-26T06:48:50.924Z,26.28
2022-08-26T06:49:52.395Z,26.20
2022-08-26T06:51:03.904Z,26.24
2022-08-26T06:52:05.442Z,26.32
2022-08-26T06:53:07.577Z,26.37
2022-08-26T06:54:09.572Z,26.35
2022-08-26T06:55:11.638Z,26.35
2022-08-26T06:56:15.451Z,26.29
2022-08-26T06:57:16.944Z,26.20
2022-08-26T06:58:18.409Z,26.16
2022-08-26T06:59:21.262Z,26.21
2022-08-26T07:00:22.737Z,26.30
2022-08-26T07:01:27.338Z,26.36
2022-08-26T07:02:29.277Z,26.43
2022-08-26T07:03:30.779Z,26.47
2022-08-26T07:04:41.195Z,26.51
2022-08-26T07:05:43.009Z,26.52
2022-08-26T07:06:45.602Z,26.49
2022-08-26T07:07:47.546Z,26.51
2022-08-26T07:08:51.382Z,26.54
2022-08-26T07:09:52.947Z,26.57
2022-08-26T07:10:57.020Z,26.62
2022-08-26T07:11:59.013Z,26.69
2022-08-26T07:13:00.466Z,26.74
2022-08-26T07:14:01.975Z,26.80
2022-08-26T07:15:04.076Z,26.85
2022-08-26T07:16:08.512Z,26.87
2022-08-26T07:17:13.815Z,26.77
2022-08-26T07:18:16.102Z,26.73
2022-08-26T07:19:18.993Z,26.68
2022-08-26T07:20:32.152Z,26.81
2022-08-26T07:21:33.644Z,26.88
2022-08-26T07:22:35.791Z,26.91
2022-08-26T07:23:38.246Z,26.97
2022-08-26T07:24:42.333Z,26.97
2022-08-26T07:25:44.035Z,27.03
2022-08-26T07:26:45.515Z,27.10
2022-08-26T07:27:53.887Z,27.06
2022-08-26T07:28:58.087Z,27.10
2022-08-26T07:30:01.027Z,27.16
2022-08-26T07:31:09.543Z,27.21
2022-08-26T07:32:14.230Z,27.26
2022-08-26T07:33:16.004Z,27.27
2022-08-26T07:34:17.466Z,27.22
2022-08-26T07:35:19.507Z,27.26
2022-08-26T07:36:21.814Z,27.30
2022-08-26T07:37:23.385Z,27.40
2022-08-26T07:38:25.087Z,27.43
2022-08-26T07:39:27.624Z,27.49
2022-08-26T07:40:30.087Z,27.54
2022-08-26T07:41:31.795Z,27.58
2022-08-26T07:42:33.439Z,27.60
2022-08-26T07:43:37.501Z,27.57
2022-08-26T07:44:40.993Z,27.53
2022-08-26T07:45:42.705Z,27.55
2022-08-26T07:46:44.730Z,27.60
2022-08-26T07:47:54.752Z,27.58
2022-08-26T07:48:58.375Z,27.65
2022-08-26T07:49:59.849Z,27.59
2022-08-26T07:51:01.556Z,27.67
2022-08-26T07:52:03.233Z,27.77
2022-08-26T07:53:05.455Z,27.78
2022-08-26T07:54:10.334Z,27.76
2022-08-26T07:55:15.278Z,27.76
2022-08-26T07:56:17.189Z,27.81
2022-08-26T07:57:19.126Z,27.83
2022-08-26T07:58:20.712Z,27.81
2022-08-26T07:59:22.206Z,27.83
2022-08-26T08:00:25.181Z,27.82
2022-08-26T08:01:27.835Z,27.88
2022-08-26T08:02:30.074Z,27.98
2022-08-26T08:03:32.098Z,28.03
2022-08-26T08:04:34.106Z,28.15
2022-08-26T08:05:36.515Z,28.21
2022-08-26T08:06:38.082Z,28.17
2022-08-26T08:07:44.795Z,28.17
2022-08-26T08:08:47.465Z,28.21
2022-08-26T08:09:48.939Z,28.28
2022-08-26T08:10:50.401Z,28.24
2022-08-26T08:11:52.728Z,28.23
2022-08-26T08:12:54.983Z,28.28
2022-08-26T08:13:57.071Z,28.27
2022-08-26T08:14:58.603Z,28.24
2022-08-26T08:16:01.144Z,28.29
2022-08-26T08:17:04.144Z,28.34
2022-08-26T08:18:06.298Z,28.37
2022-08-26T08:19:17.157Z,28.36
2022-08-26T08:20:19.809Z,28.41
2022-08-26T08:21:23.956Z,28.48
2022-08-26T08:22:25.782Z,28.55
2022-08-26T08:23:29.502Z,28.60
2022-08-26T08:24:32.100Z,28.64
2022-08-26T08:25:34.271Z,28.63
2022-08-26T08:26:35.909Z,28.66
2022-08-26T08:27:39.498Z,28.71
2022-08-26T08:28:41.531Z,28.62
2022-08-26T08:29:43.117Z,28.50
2022-08-26T08:30:44.685Z,28.61
2022-08-26T08:31:56.432Z,28.67
2022-08-26T08:32:59.092Z,28.73
2022-08-26T08:34:02.437Z,28.78
2022-08-26T08:35:11.048Z,28.84
2022-08-26T08:36:13.319Z,28.95
2022-08-26T08:37:20.119Z,28.98
2022-08-26T08:38:22.605Z,29.09
2022-08-26T08:39:25.935Z,29.21
2022-08-26T08:40:27.747Z,29.16
2022-08-26T08:41:39.790Z,29.23
2022-08-26T08:43:10.706Z,29.27
2022-08-26T08:44:19.722Z,29.33
2022-08-26T08:45:36.297Z,29.42
2022-08-26T08:46:40.617Z,29.50
2022-08-26T08:47:56.482Z,29.53
2022-08-26T08:48:59.335Z,29.48
2022-08-26T08:50:09.968Z,29.41
2022-08-26T08:51:30.117Z,29.29
2022-08-26T08:52:35.249Z,29.28
2022-08-26T08:53:43.174Z,29.30
2022-08-26T08:54:44.759Z,29.33
2022-08-26T08:55:52.146Z,29.36
2022-08-26T08:57:06.174Z,29.42
2022-08-26T08:58:15.837Z,29.52
2022-08-26T08:59:23.246Z,29.30
2022-08-26T09:00:30.387Z,29.33
2022-08-26T09:01:45.448Z,29.41
2022-08-26T09:03:03.518Z,29.48
2022-08-26T09:04:24.844Z,29.47
2022-08-26T09:05:37.850Z,29.56
2022-08-26T09:06:41.075Z,29.59
2022-08-26T09:07:47.920Z,29.72
2022-08-26T09:08:51.177Z,29.76
2022-08-26T09:09:58.094Z,29.79
2022-08-26T09:11:02.120Z,29.79
2022-08-26T09:12:04.832Z,29.82
2022-08-26T09:13:11.002Z,29.79
2022-08-26T09:14:17.925Z,29.84
2022-08-26T09:15:59.288Z,29.89
2022-08-26T09:17:35.866Z,29.84
2022-08-26T09:18:46.113Z,29.90
2022-08-26T09:19:52.499Z,29.93
2022-08-26T09:21:06.233Z,29.97
2022-08-26T09:22:09.520Z,30.01
2022-08-26T09:23:11.421Z,30.10
2022-08-26T09:24:14.828Z,30.15
2022-08-26T09:25:19.689Z,30.25
2022-08-26T09:26:25.932Z,30.30
2022-08-26T09:27:59.242Z,30.36
2022-08-26T09:29:04.868Z,30.35
2022-08-26T09:30:11.450Z,30.39
2022-08-26T09:31:21.145Z,30.43
2022-08-26T09:32:25.940Z,30.49
2022-08-26T09:33:30.255Z,30.43
2022-08-26T09:34:31.860Z,30.48
2022-08-26T09:35:36.471Z,30.42
2022-08-26T09:36:47.071Z,30.43
2022-08-26T09:38:55.082Z,30.43
2022-08-26T09:40:12.543Z,30.54
2022-08-26T09:41:27.284Z,30.44
2022-08-26T09:42:28.771Z,30.34
2022-08-26T09:43:31.269Z,30.43
2022-08-26T09:44:33.419Z,30.52
2022-08-26T09:45:37.644Z,30.56
2022-08-26T09:46:45.973Z,30.62
2022-08-26T09:47:51.072Z,30.71
2022-08-26T09:48:53.181Z,30.79
2022-08-26T09:50:09.632Z,30.84
2022-08-26T09:51:20.555Z,30.79
2022-08-26T09:52:24.645Z,30.85
2022-08-26T09:53:30.427Z,30.87
2022-08-26T09:54:32.478Z,30.91
2022-08-26T09:55:36.692Z,31.01
2022-08-26T09:56:39.180Z,30.95
2022-08-26T09:57:53.209Z,30.97
2022-08-26T09:58:56.895Z,31.02
2022-08-26T09:59:58.358Z,31.05
2022-08-26T10:01:02.388Z,31.03
2022-08-26T10:02:26.724Z,30.91
2022-08-26T10:03:31.747Z,30.88
2022-08-26T10:04:33.551Z,30.97
2022-08-26T10:05:46.019Z,30.96
2022-08-26T10:06:59.536Z,31.07
2022-08-26T10:08:19.886Z,31.11
2022-08-26T10:09:25.705Z,31.14
2022-08-26T10:10:40.616Z,31.18
2022-08-26T10:11:57.106Z,31.24
2022-08-26T10:13:16.266Z,31.33
2022-08-26T10:14:39.968Z,31.43
2022-08-26T10:16:16.228Z,31.55
2022-08-26T10:17:41.687Z,31.42
2022-08-26T10:18:50.024Z,31.31
2022-08-26T10:20:23.379Z,31.43
2022-08-26T10:21:31.874Z,31.43
2022-08-26T10:22:57.061Z,31.45
2022-08-26T10:24:01.855Z,31.45
2022-08-26T10:25:07.934Z,31.52
2022-08-26T10:26:25.920Z,31.51
2022-08-26T10:27:53.870Z,31.63
2022-08-26T10:29:21.137Z,31.62
2022-08-26T10:30:33.148Z,31.36
2022-08-26T10:31:47.838Z,31.40
2022-08-26T10:33:01.571Z,31.40
2022-08-26T10:34:03.114Z,31.49
2022-08-26T10:35:07.696Z,31.49
2022-08-26T10:36:15.311Z,31.55
2022-08-26T10:37:27.640Z,31.62
2022-08-26T10:38:33.308Z,31.61
2022-08-26T10:40:02.586Z,31.72
2022-08-26T10:41:19.632Z,31.74
2022-08-26T10:42:29.868Z,31.67
2022-08-26T10:43:40.936Z,31.71
2022-08-26T10:44:43.716Z,31.76
2022-08-26T10:45:53.478Z,31.88
2022-08-26T10:47:02.946Z,31.91
2022-08-26T10:48:10.646Z,31.90
2022-08-26T10:49:14.253Z,31.98
2022-08-26T10:50:18.107Z,32.09
2022-08-26T10:51:27.280Z,32.14
2022-08-26T10:52:47.992Z,32.16
2022-08-26T10:54:07.833Z,32.19
2022-08-26T10:55:24.379Z,32.17
2022-08-26T10:57:02.804Z,32.21
2022-08-26T10:58:16.428Z,32.14
2022-08-26T10:59:30.980Z,32.06
2022-08-26T11:00:41.619Z,32.05
2022-08-26T11:01:53.555Z,32.13
2022-08-26T11:03:21.821Z,32.19
2022-08-26T11:04:58.741Z,32.25
2022-08-26T11:06:21.234Z,32.25
2022-08-26T11:07:35.438Z,32.15
2022-08-26T11:08:46.138Z,32.23
2022-08-26T11:09:48.131Z,32.31
2022-08-26T11:10:58.019Z,32.32
2022-08-26T11:12:05.115Z,32.38
2022-08-26T11:13:11.602Z,32.40
2022-08-26T11:14:18.931Z,32.38
2022-08-26T11:15:30.825Z,32.35
2022-08-26T11:16:43.388Z,32.42
2022-08-26T11:17:45.208Z,32.40
2022-08-26T11:18:47.117Z,32.31
2022-08-26T11:20:00.713Z,32.24
2022-08-26T11:21:24.574Z,32.24
2022-08-26T11:22:35.226Z,32.18
2022-08-26T11:23:50.405Z,32.15
2022-08-26T11:24:52.254Z,32.14
2022-08-26T11:26:18.859Z,32.19
2022-08-26T11:27:36.019Z,32.30
2022-08-26T11:28:46.307Z,32.31
2022-08-26T11:30:13.242Z,32.23
2022-08-26T11:31:24.124Z,32.31
2022-08-26T11:32:52.142Z,32.27
2022-08-26T11:33:59.110Z,32.37
2022-08-26T11:35:13.222Z,32.38
2022-08-26T11:36:45.578Z,32.33
2022-08-26T11:38:21.985Z,32.34
2022-08-26T11:39:52.683Z,32.38
2022-08-26T11:41:08.024Z,32.46
2022-08-26T11:42:21.087Z,32.28
2022-08-26T11:43:26.087Z,32.20
2022-08-26T11:44:49.386Z,32.13
2022-08-26T11:46:04.800Z,32.04
2022-08-26T11:47:07.394Z,32.00
2022-08-26T11:48:29.439Z,31.94
2022-08-26T11:49:31.893Z,31.90
2022-08-26T11:50:34.926Z,31.93
2022-08-26T11:51:40.205Z,31.99
2022-08-26T11:52:57.744Z,31.93
2022-08-26T11:54:14.302Z,31.98
2022-08-26T11:55:17.511Z,32.07
2022-08-26T11:56:31.619Z,32.13
2022-08-26T11:57:40.263Z,32.15
2022-08-26T11:58:44.708Z,32.18
2022-08-26T11:59:46.350Z,32.23
2022-08-26T12:01:01.401Z,32.22
2022-08-26T12:02:12.996Z,32.06
2022-08-26T12:03:50.956Z,31.96
2022-08-26T12:04:54.365Z,32.01
2022-08-26T12:05:56.184Z,32.07
2022-08-26T12:06:59.448Z,32.07
2022-08-26T12:08:06.999Z,32.13
2022-08-26T12:09:13.563Z,32.12
2022-08-26T12:10:29.562Z,32.15
2022-08-26T12:11:34.047Z,32.25
2022-08-26T12:12:37.097Z,32.35
2022-08-26T12:13:38.553Z,32.28
2022-08-26T12:14:41.320Z,32.29
2022-08-26T12:15:52.625Z,32.21
2022-08-26T12:17:09.815Z,32.07
2022-08-26T12:18:29.629Z,32.09
2022-08-26T12:19:34.068Z,32.14
2022-08-26T12:20:41.908Z,32.18
2022-08-26T12:21:48.214Z,32.26
2022-08-26T12:22:50.005Z,32.36
2022-08-26T12:23:58.913Z,32.45
2022-08-26T12:25:09.257Z,32.43
2022-08-26T12:26:19.223Z,32.28
2022-08-26T12:27:20.670Z,32.32
2022-08-26T12:28:23.206Z,32.30
2022-08-26T12:29:27.676Z,32.33
2022-08-26T12:30:29.231Z,32.40
2022-08-26T12:31:39.635Z,32.42
2022-08-26T12:32:57.466Z,32.38
2022-08-26T12:34:03.489Z,32.33
2022-08-26T12:35:09.310Z,32.42
2022-08-26T12:36:13.294Z,32.49
2022-08-26T12:37:15.150Z,32.50
2022-08-26T12:38:16.923Z,32.54
2022-08-26T12:39:30.832Z,32.42
2022-08-26T12:40:45.400Z,32.42
2022-08-26T12:41:50.325Z,32.41
2022-08-26T12:42:51.853Z,32.38
2022-08-26T12:43:53.381Z,32.46
2022-08-26T12:45:04.132Z,32.58
2022-08-26T12:46:07.235Z,32.56
2022-08-26T12:47:41.995Z,32.57
2022-08-26T12:48:48.996Z,32.63
2022-08-26T12:50:01.039Z,32.70
2022-08-26T12:51:03.187Z,32.74
2022-08-26T12:52:09.710Z,32.75
2022-08-26T12:53:11.185Z,32.79
2022-08-26T12:54:14.838Z,32.72
2022-08-26T12:55:23.831Z,32.70
2022-08-26T12:56:35.478Z,32.63
2022-08-26T12:57:37.771Z,32.63
2022-08-26T12:58:39.847Z,32.70
2022-08-26T12:59:41.453Z,32.72
2022-08-26T13:00:44.767Z,32.63
2022-08-26T13:01:47.074Z,32.66
2022-08-26T13:02:48.749Z,32.63
2022-08-26T13:03:50.444Z,32.63
2022-08-26T13:05:00.758Z,32.47
2022-08-26T13:06:08.562Z,32.29
2022-08-26T13:07:25.907Z,32.20
2022-08-26T13:08:28.092Z,32.18
2022-08-26T13:09:30.513Z,32.09
2022-08-26T13:10:42.041Z,32.06
2022-08-26T13:11:43.508Z,32.00
2022-08-26T13:12:45.031Z,32.05
2022-08-26T13:13:48.776Z,32.10
2022-08-26T13:14:50.896Z,32.09
2022-08-26T13:15:52.440Z,32.19
2022-08-26T13:16:54.010Z,32.29
2022-08-26T13:17:55.484Z,32.35
2022-08-26T13:19:02.577Z,32.46
2022-08-26T13:20:04.647Z,32.48
2022-08-26T13:21:13.478Z,32.52
2022-08-26T13:22:17.030Z,32.54
2022-08-26T13:23:21.314Z,32.42
2022-08-26T13:24:27.675Z,32.33
2022-08-26T13:25:29.172Z,32.33
2022-08-26T13:26:30.719Z,32.30
2022-08-26T13:27:32.229Z,32.28
2022-08-26T13:28:33.833Z,32.28
2022-08-26T13:29:35.496Z,32.27
2022-08-26T13:30:37.138Z,32.22
2022-08-26T13:31:41.102Z,32.11
2022-08-26T13:32:42.735Z,32.10
2022-08-26T13:33:45.311Z,32.11
2022-08-26T13:34:51.523Z,32.19
2022-08-26T13:35:53.191Z,32.25
2022-08-26T13:36:56.350Z,32.28
2022-08-26T13:37:57.873Z,32.18
2022-08-26T13:39:00.264Z,32.18
2022-08-26T13:40:02.552Z,32.17
2022-08-26T13:41:04.291Z,32.22
2022-08-26T13:42:05.930Z,32.28
2022-08-26T13:43:08.215Z,32.33
2022-08-26T13:44:10.331Z,32.37
2022-08-26T13:45:11.998Z,32.34
2022-08-26T13:46:13.620Z,32.38
2022-08-26T13:47:15.396Z,32.45
2022-08-26T13:48:20.289Z,32.44
2022-08-26T13:49:23.158Z,32.43
2022-08-26T13:50:24.716Z,32.45
2022-08-26T13:51:27.350Z,32.46
2022-08-26T13:52:30.893Z,32.47
2022-08-26T13:53:32.685Z,32.42
2022-08-26T13:54:34.204Z,32.46
2022-08-26T13:55:35.727Z,32.46
2022-08-26T13:56:37.269Z,32.48
2022-08-26T13:57:38.770Z,32.51
2022-08-26T13:58:40.676Z,32.51
2022-08-26T13:59:42.193Z,32.58
2022-08-26T14:00:43.916Z,32.54
2022-08-26T14:01:45.539Z,32.56
2022-08-26T14:02:47.578Z,32.58
2022-08-26T14:03:49.483Z,32.56
2022-08-26T14:04:51.182Z,32.56
2022-08-26T14:05:53.148Z,32.58